sensor_id;sensor_type;location;lat;lon;timestamp;pressure;altitude;pressure_sealevel;temperature;humidity
23635;BME280;11994;51.038;16.974;2023-02-04T00:00:46;99605.69;;;5.12;94.06
23635;BME280;11994;51.038;16.974;2023-02-04T00:03:13;99612.83;;;4.93;92.46
23635;BME280;11994;51.038;16.974;2023-02-04T00:05:39;99617.48;;;4.79;92.51
23635;BME280;11994;51.038;16.974;2023-02-04T00:08:04;99627.23;;;4.73;92.76
23635;BME280;11994;51.038;16.974;2023-02-04T00:10:30;99629.70;;;4.69;92.75
23635;BME280;11994;51.038;16.974;2023-02-04T00:12:55;99625.39;;;4.67;91.65
23635;BME280;11994;51.038;16.974;2023-02-04T00:15:20;99626.81;;;4.62;90.47
23635;BME280;11994;51.038;16.974;2023-02-04T00:17:46;99634.84;;;4.56;90.08
23635;BME280;11994;51.038;16.974;2023-02-04T00:20:11;99650.84;;;4.48;89.57
23635;BME280;11994;51.038;16.974;2023-02-04T00:22:37;99651.40;;;4.43;88.82
23635;BME280;11994;51.038;16.974;2023-02-04T00:25:02;99648.30;;;4.39;88.26
23635;BME280;11994;51.038;16.974;2023-02-04T00:27:27;99638.48;;;4.35;87.90
23635;BME280;11994;51.038;16.974;2023-02-04T00:29:53;99651.14;;;4.32;88.09
23635;BME280;11994;51.038;16.974;2023-02-04T00:32:18;99661.73;;;4.27;87.43
23635;BME280;11994;51.038;16.974;2023-02-04T00:34:44;99667.79;;;4.26;87.28
23635;BME280;11994;51.038;16.974;2023-02-04T00:37:09;99674.89;;;4.26;87.94
23635;BME280;11994;51.038;16.974;2023-02-04T00:39:34;99684.23;;;4.25;88.25
23635;BME280;11994;51.038;16.974;2023-02-04T00:42:00;99693.77;;;4.24;88.04
23635;BME280;11994;51.038;16.974;2023-02-04T00:44:25;99713.84;;;4.23;87.74
23635;BME280;11994;51.038;16.974;2023-02-04T00:46:50;99706.77;;;4.20;88.23
23635;BME280;11994;51.038;16.974;2023-02-04T00:49:16;99708.67;;;4.18;88.05
23635;BME280;11994;51.038;16.974;2023-02-04T00:51:41;99720.64;;;4.14;88.13
23635;BME280;11994;51.038;16.974;2023-02-04T00:54:10;99720.67;;;4.11;88.35
23635;BME280;11994;51.038;16.974;2023-02-04T00:56:36;99719.83;;;4.05;88.55
23635;BME280;11994;51.038;16.974;2023-02-04T00:59:01;99727.64;;;4.01;88.91
23635;BME280;11994;51.038;16.974;2023-02-04T01:01:27;99732.15;;;3.97;89.27
23635;BME280;11994;51.038;16.974;2023-02-04T01:03:52;99737.37;;;3.91;89.68
23635;BME280;11994;51.038;16.974;2023-02-04T01:06:17;99742.92;;;3.86;89.85
23635;BME280;11994;51.038;16.974;2023-02-04T01:08:43;99745.89;;;3.80;90.08
23635;BME280;11994;51.038;16.974;2023-02-04T01:11:08;99758.87;;;3.77;90.22
23635;BME280;11994;51.038;16.974;2023-02-04T01:13:33;99756.29;;;3.72;90.84
23635;BME280;11994;51.038;16.974;2023-02-04T01:15:59;99766.86;;;3.67;91.17
23635;BME280;11994;51.038;16.974;2023-02-04T01:18:24;99773.27;;;3.61;91.30
23635;BME280;11994;51.038;16.974;2023-02-04T01:20:49;99778.98;;;3.55;91.77
23635;BME280;11994;51.038;16.974;2023-02-04T01:23:15;99785.58;;;3.51;92.15
23635;BME280;11994;51.038;16.974;2023-02-04T01:25:40;99794.73;;;3.48;92.22
23635;BME280;11994;51.038;16.974;2023-02-04T01:28:05;99795.43;;;3.44;92.53
23635;BME280;11994;51.038;16.974;2023-02-04T01:30:31;99792.00;;;3.38;92.65
23635;BME280;11994;51.038;16.974;2023-02-04T01:32:56;99796.83;;;3.35;92.73
23635;BME280;11994;51.038;16.974;2023-02-04T01:35:21;99805.98;;;3.32;92.81
23635;BME280;11994;51.038;16.974;2023-02-04T01:37:47;99806.35;;;3.28;92.68
23635;BME280;11994;51.038;16.974;2023-02-04T01:40:12;99818.27;;;3.23;92.67
23635;BME280;11994;51.038;16.974;2023-02-04T01:42:38;99837.27;;;3.17;92.98
23635;BME280;11994;51.038;16.974;2023-02-04T01:45:04;99866.46;;;3.10;92.61
23635;BME280;11994;51.038;16.974;2023-02-04T01:47:31;99885.46;;;3.05;92.43
23635;BME280;11994;51.038;16.974;2023-02-04T01:49:56;99921.02;;;2.98;92.24
23635;BME280;11994;51.038;16.974;2023-02-04T01:52:22;99950.01;;;2.89;90.92
23635;BME280;11994;51.038;16.974;2023-02-04T01:54:49;99962.04;;;2.71;90.05
23635;BME280;11994;51.038;16.974;2023-02-04T01:57:15;99991.66;;;2.57;89.29
23635;BME280;11994;51.038;16.974;2023-02-04T01:59:45;100009.73;;;2.47;89.40
23635;BME280;11994;51.038;16.974;2023-02-04T02:02:43;100019.17;;;2.38;88.38
23635;BME280;11994;51.038;16.974;2023-02-04T02:05:31;100041.19;;;2.29;88.52
23635;BME280;11994;51.038;16.974;2023-02-04T02:08:03;100051.34;;;2.25;88.25
23635;BME280;11994;51.038;16.974;2023-02-04T02:10:30;100071.66;;;2.21;88.21
23635;BME280;11994;51.038;16.974;2023-02-04T02:12:56;100086.45;;;2.15;87.88
23635;BME280;11994;51.038;16.974;2023-02-04T02:15:23;100107.97;;;2.10;88.07
23635;BME280;11994;51.038;16.974;2023-02-04T02:17:49;100116.56;;;2.08;88.08
23635;BME280;11994;51.038;16.974;2023-02-04T02:20:17;100141.21;;;2.06;87.87
23635;BME280;11994;51.038;16.974;2023-02-04T02:25:27;100179.95;;;2.01;87.70
23635;BME280;11994;51.038;16.974;2023-02-04T02:27:53;100189.76;;;1.99;87.44
23635;BME280;11994;51.038;16.974;2023-02-04T02:30:19;100206.95;;;1.95;87.10
23635;BME280;11994;51.038;16.974;2023-02-04T02:32:46;100219.69;;;1.93;87.05
23635;BME280;11994;51.038;16.974;2023-02-04T02:35:12;100235.20;;;1.91;86.82
23635;BME280;11994;51.038;16.974;2023-02-04T02:37:38;100256.88;;;1.86;86.60
23635;BME280;11994;51.038;16.974;2023-02-04T02:40:05;100269.41;;;1.84;86.46
23635;BME280;11994;51.038;16.974;2023-02-04T02:42:31;100284.71;;;1.80;86.49
23635;BME280;11994;51.038;16.974;2023-02-04T02:44:56;100301.40;;;1.78;86.26
23635;BME280;11994;51.038;16.974;2023-02-04T02:47:22;100314.66;;;1.77;86.39
23635;BME280;11994;51.038;16.974;2023-02-04T02:49:50;100331.70;;;1.75;85.98
23635;BME280;11994;51.038;16.974;2023-02-04T02:52:17;100352.87;;;1.73;86.12
23635;BME280;11994;51.038;16.974;2023-02-04T02:54:42;100360.45;;;1.72;86.24
23635;BME280;11994;51.038;16.974;2023-02-04T02:57:13;100375.06;;;1.70;86.08
23635;BME280;11994;51.038;16.974;2023-02-04T02:59:40;100383.34;;;1.70;86.00
23635;BME280;11994;51.038;16.974;2023-02-04T03:02:06;100392.48;;;1.71;86.16
23635;BME280;11994;51.038;16.974;2023-02-04T03:04:38;100407.64;;;1.71;86.11
23635;BME280;11994;51.038;16.974;2023-02-04T03:07:05;100433.15;;;1.70;85.84
23635;BME280;11994;51.038;16.974;2023-02-04T03:09:32;100446.38;;;1.68;85.41
23635;BME280;11994;51.038;16.974;2023-02-04T03:11:57;100457.40;;;1.67;85.65
23635;BME280;11994;51.038;16.974;2023-02-04T03:14:23;100476.85;;;1.65;85.13
23635;BME280;11994;51.038;16.974;2023-02-04T03:16:51;100485.98;;;1.65;85.20
23635;BME280;11994;51.038;16.974;2023-02-04T03:19:17;100499.10;;;1.66;85.10
23635;BME280;11994;51.038;16.974;2023-02-04T03:21:42;100511.16;;;1.65;85.29
23635;BME280;11994;51.038;16.974;2023-02-04T03:24:08;100522.65;;;1.63;85.31
23635;BME280;11994;51.038;16.974;2023-02-04T03:26:33;100538.15;;;1.62;85.47
23635;BME280;11994;51.038;16.974;2023-02-04T03:28:59;100550.34;;;1.59;85.31
23635;BME280;11994;51.038;16.974;2023-02-04T03:31:24;100572.84;;;1.55;85.10
23635;BME280;11994;51.038;16.974;2023-02-04T03:33:50;100584.69;;;1.53;85.27
23635;BME280;11994;51.038;16.974;2023-02-04T03:36:15;100596.71;;;1.52;85.22
23635;BME280;11994;51.038;16.974;2023-02-04T03:38:41;100608.70;;;1.48;84.79
23635;BME280;11994;51.038;16.974;2023-02-04T03:41:06;100627.95;;;1.45;84.50
23635;BME280;11994;51.038;16.974;2023-02-04T03:43:32;100646.66;;;1.41;84.34
23635;BME280;11994;51.038;16.974;2023-02-04T03:45:57;100656.09;;;1.39;83.88
23635;BME280;11994;51.038;16.974;2023-02-04T03:48:22;100663.14;;;1.39;84.26
23635;BME280;11994;51.038;16.974;2023-02-04T03:50:48;100669.74;;;1.42;84.56
23635;BME280;11994;51.038;16.974;2023-02-04T03:53:13;100679.04;;;1.42;84.29
23635;BME280;11994;51.038;16.974;2023-02-04T03:55:39;100695.38;;;1.40;84.04
23635;BME280;11994;51.038;16.974;2023-02-04T03:58:04;100706.67;;;1.36;83.82
23635;BME280;11994;51.038;16.974;2023-02-04T04:00:29;100725.18;;;1.32;83.35
23635;BME280;11994;51.038;16.974;2023-02-04T04:02:56;100740.57;;;1.27;83.15
23635;BME280;11994;51.038;16.974;2023-02-04T04:05:22;100749.80;;;1.23;83.40
23635;BME280;11994;51.038;16.974;2023-02-04T04:07:47;100759.80;;;1.24;83.15
23635;BME280;11994;51.038;16.974;2023-02-04T04:10:13;100778.59;;;1.24;82.98
23635;BME280;11994;51.038;16.974;2023-02-04T04:12:38;100778.58;;;1.25;82.86
23635;BME280;11994;51.038;16.974;2023-02-04T04:15:04;100784.42;;;1.24;82.62
23635;BME280;11994;51.038;16.974;2023-02-04T04:17:29;100791.66;;;1.23;82.67
23635;BME280;11994;51.038;16.974;2023-02-04T04:19:55;100808.00;;;1.23;82.65
23635;BME280;11994;51.038;16.974;2023-02-04T04:22:20;100817.98;;;1.22;82.49
23635;BME280;11994;51.038;16.974;2023-02-04T04:24:45;100828.46;;;1.22;82.54
23635;BME280;11994;51.038;16.974;2023-02-04T04:27:11;100834.02;;;1.23;82.59
23635;BME280;11994;51.038;16.974;2023-02-04T04:29:36;100837.86;;;1.25;82.41
23635;BME280;11994;51.038;16.974;2023-02-04T04:32:01;100852.69;;;1.26;82.01
23635;BME280;11994;51.038;16.974;2023-02-04T04:34:29;100864.17;;;1.24;82.01
23635;BME280;11994;51.038;16.974;2023-02-04T04:36:54;100867.92;;;1.22;81.71
23635;BME280;11994;51.038;16.974;2023-02-04T04:39:20;100878.74;;;1.21;81.36
23635;BME280;11994;51.038;16.974;2023-02-04T04:41:46;100892.11;;;1.19;81.80
23635;BME280;11994;51.038;16.974;2023-02-04T04:44:11;100900.17;;;1.17;81.52
23635;BME280;11994;51.038;16.974;2023-02-04T04:46:37;100917.23;;;1.17;81.81
23635;BME280;11994;51.038;16.974;2023-02-04T04:49:05;100924.66;;;1.18;81.57
23635;BME280;11994;51.038;16.974;2023-02-04T04:51:30;100934.83;;;1.18;81.68
23635;BME280;11994;51.038;16.974;2023-02-04T04:53:57;100946.73;;;1.19;81.86
23635;BME280;11994;51.038;16.974;2023-02-04T04:56:22;100958.09;;;1.19;81.97
23635;BME280;11994;51.038;16.974;2023-02-04T04:58:47;100962.35;;;1.17;81.40
23635;BME280;11994;51.038;16.974;2023-02-04T05:01:13;100979.50;;;1.14;81.23
23635;BME280;11994;51.038;16.974;2023-02-04T05:03:38;100981.31;;;1.12;81.09
23635;BME280;11994;51.038;16.974;2023-02-04T05:06:03;100993.89;;;1.12;81.30
23635;BME280;11994;51.038;16.974;2023-02-04T05:08:29;100996.98;;;1.11;81.28
23635;BME280;11994;51.038;16.974;2023-02-04T05:10:54;101011.45;;;1.11;81.22
23635;BME280;11994;51.038;16.974;2023-02-04T05:13:20;101030.40;;;1.12;81.27
23635;BME280;11994;51.038;16.974;2023-02-04T05:15:45;101041.58;;;1.11;81.06
23635;BME280;11994;51.038;16.974;2023-02-04T05:18:11;101047.69;;;1.08;81.07
23635;BME280;11994;51.038;16.974;2023-02-04T05:20:36;101057.13;;;1.07;81.12
23635;BME280;11994;51.038;16.974;2023-02-04T05:23:01;101072.06;;;1.05;80.38
23635;BME280;11994;51.038;16.974;2023-02-04T05:25:27;101073.39;;;1.03;80.46
23635;BME280;11994;51.038;16.974;2023-02-04T05:27:53;101087.39;;;1.05;80.38
23635;BME280;11994;51.038;16.974;2023-02-04T05:30:19;101084.81;;;1.05;80.59
23635;BME280;11994;51.038;16.974;2023-02-04T05:32:44;101102.94;;;1.06;80.65
23635;BME280;11994;51.038;16.974;2023-02-04T05:35:10;101111.20;;;1.06;80.53
23635;BME280;11994;51.038;16.974;2023-02-04T05:37:35;101120.61;;;1.05;80.30
23635;BME280;11994;51.038;16.974;2023-02-04T05:40:01;101127.26;;;1.02;79.81
23635;BME280;11994;51.038;16.974;2023-02-04T05:42:26;101128.06;;;1.00;79.95
23635;BME280;11994;51.038;16.974;2023-02-04T05:44:52;101134.20;;;0.99;79.86
23635;BME280;11994;51.038;16.974;2023-02-04T05:47:17;101137.48;;;0.98;79.84
23635;BME280;11994;51.038;16.974;2023-02-04T05:49:44;101145.46;;;1.01;79.87
23635;BME280;11994;51.038;16.974;2023-02-04T05:52:10;101151.33;;;1.02;79.95
23635;BME280;11994;51.038;16.974;2023-02-04T05:54:35;101162.05;;;1.03;80.37
23635;BME280;11994;51.038;16.974;2023-02-04T05:57:00;101166.23;;;1.04;80.43
23635;BME280;11994;51.038;16.974;2023-02-04T05:59:26;101173.34;;;1.06;80.23
23635;BME280;11994;51.038;16.974;2023-02-04T06:01:51;101179.23;;;1.07;80.16
23635;BME280;11994;51.038;16.974;2023-02-04T06:04:17;101188.34;;;1.07;80.27
23635;BME280;11994;51.038;16.974;2023-02-04T06:06:42;101191.23;;;1.05;80.11
23635;BME280;11994;51.038;16.974;2023-02-04T06:09:09;101195.86;;;1.05;80.25
23635;BME280;11994;51.038;16.974;2023-02-04T06:11:34;101206.61;;;1.07;80.40
23635;BME280;11994;51.038;16.974;2023-02-04T06:14:00;101211.54;;;1.10;80.43
23635;BME280;11994;51.038;16.974;2023-02-04T06:16:25;101219.33;;;1.11;80.37
23635;BME280;11994;51.038;16.974;2023-02-04T06:18:51;101229.50;;;1.12;80.40
23635;BME280;11994;51.038;16.974;2023-02-04T06:21:16;101244.67;;;1.13;80.50
23635;BME280;11994;51.038;16.974;2023-02-04T06:23:42;101252.23;;;1.12;80.20
23635;BME280;11994;51.038;16.974;2023-02-04T06:26:07;101260.80;;;1.10;80.40
23635;BME280;11994;51.038;16.974;2023-02-04T06:28:32;101270.59;;;1.10;80.43
23635;BME280;11994;51.038;16.974;2023-02-04T06:30:58;101276.88;;;1.07;80.50
23635;BME280;11994;51.038;16.974;2023-02-04T06:33:23;101289.79;;;1.07;80.56
23635;BME280;11994;51.038;16.974;2023-02-04T06:35:49;101293.38;;;1.06;80.60
23635;BME280;11994;51.038;16.974;2023-02-04T06:38:15;101299.23;;;1.06;80.68
23635;BME280;11994;51.038;16.974;2023-02-04T06:40:40;101305.09;;;1.06;80.71
23635;BME280;11994;51.038;16.974;2023-02-04T06:43:06;101313.14;;;1.05;80.67
23635;BME280;11994;51.038;16.974;2023-02-04T06:45:31;101322.56;;;1.03;80.86
23635;BME280;11994;51.038;16.974;2023-02-04T06:47:56;101328.54;;;1.02;80.71
23635;BME280;11994;51.038;16.974;2023-02-04T06:50:22;101343.73;;;0.98;80.79
23635;BME280;11994;51.038;16.974;2023-02-04T06:52:47;101346.60;;;0.96;81.03
23635;BME280;11994;51.038;16.974;2023-02-04T06:55:14;101358.84;;;0.96;81.20
23635;BME280;11994;51.038;16.974;2023-02-04T06:57:39;101365.69;;;0.95;81.28
23635;BME280;11994;51.038;16.974;2023-02-04T07:00:05;101373.37;;;0.93;81.03
23635;BME280;11994;51.038;16.974;2023-02-04T07:02:31;101380.83;;;0.90;81.13
23635;BME280;11994;51.038;16.974;2023-02-04T07:04:56;101390.53;;;0.86;81.00
23635;BME280;11994;51.038;16.974;2023-02-04T07:07:24;101395.09;;;0.84;80.95
23635;BME280;11994;51.038;16.974;2023-02-04T07:09:49;101400.69;;;0.82;81.00
23635;BME280;11994;51.038;16.974;2023-02-04T07:12:15;101410.50;;;0.82;81.11
23635;BME280;11994;51.038;16.974;2023-02-04T07:14:40;101411.41;;;0.83;80.98
23635;BME280;11994;51.038;16.974;2023-02-04T07:17:06;101419.30;;;0.82;81.12
23635;BME280;11994;51.038;16.974;2023-02-04T07:19:31;101425.42;;;0.80;80.97
23635;BME280;11994;51.038;16.974;2023-02-04T07:21:57;101432.83;;;0.76;80.86
23635;BME280;11994;51.038;16.974;2023-02-04T07:24:23;101441.14;;;0.72;80.60
23635;BME280;11994;51.038;16.974;2023-02-04T07:26:49;101445.67;;;0.69;80.81
23635;BME280;11994;51.038;16.974;2023-02-04T07:29:14;101448.67;;;0.67;80.76
23635;BME280;11994;51.038;16.974;2023-02-04T07:31:40;101449.52;;;0.66;80.69
23635;BME280;11994;51.038;16.974;2023-02-04T07:34:05;101457.77;;;0.66;80.65
23635;BME280;11994;51.038;16.974;2023-02-04T07:36:31;101464.63;;;0.65;80.77
23635;BME280;11994;51.038;16.974;2023-02-04T07:38:57;101472.20;;;0.65;81.02
23635;BME280;11994;51.038;16.974;2023-02-04T07:41:22;101479.02;;;0.63;80.81
23635;BME280;11994;51.038;16.974;2023-02-04T07:43:48;101486.84;;;0.60;80.81
23635;BME280;11994;51.038;16.974;2023-02-04T07:46:13;101487.95;;;0.58;80.83
23635;BME280;11994;51.038;16.974;2023-02-04T07:48:38;101489.83;;;0.57;81.01
23635;BME280;11994;51.038;16.974;2023-02-04T07:51:04;101492.56;;;0.62;81.12
23635;BME280;11994;51.038;16.974;2023-02-04T07:53:29;101493.96;;;0.67;81.11
23635;BME280;11994;51.038;16.974;2023-02-04T07:55:55;101497.06;;;0.72;81.08
23635;BME280;11994;51.038;16.974;2023-02-04T07:58:20;101500.02;;;0.77;81.10
23635;BME280;11994;51.038;16.974;2023-02-04T08:00:46;101502.51;;;0.84;81.07
23635;BME280;11994;51.038;16.974;2023-02-04T08:03:12;101503.44;;;0.90;80.95
23635;BME280;11994;51.038;16.974;2023-02-04T08:05:37;101511.20;;;0.96;80.89
23635;BME280;11994;51.038;16.974;2023-02-04T08:08:02;101512.63;;;1.01;80.73
23635;BME280;11994;51.038;16.974;2023-02-04T08:10:28;101510.50;;;1.04;80.60
23635;BME280;11994;51.038;16.974;2023-02-04T08:12:53;101512.65;;;1.11;80.61
23635;BME280;11994;51.038;16.974;2023-02-04T08:15:18;101516.23;;;1.20;80.55
23635;BME280;11994;51.038;16.974;2023-02-04T08:17:44;101519.56;;;1.27;80.35
23635;BME280;11994;51.038;16.974;2023-02-04T08:20:10;101526.80;;;1.32;79.85
23635;BME280;11994;51.038;16.974;2023-02-04T08:22:35;101532.02;;;1.33;79.56
23635;BME280;11994;51.038;16.974;2023-02-04T08:25:02;101529.84;;;1.34;79.79
23635;BME280;11994;51.038;16.974;2023-02-04T08:27:29;101538.08;;;1.39;79.38
23635;BME280;11994;51.038;16.974;2023-02-04T08:29:54;101541.23;;;1.40;79.04
23635;BME280;11994;51.038;16.974;2023-02-04T08:32:20;101534.84;;;1.39;78.49
23635;BME280;11994;51.038;16.974;2023-02-04T08:34:45;101527.11;;;1.40;78.94
23635;BME280;11994;51.038;16.974;2023-02-04T08:37:13;101533.70;;;1.47;78.83
23635;BME280;11994;51.038;16.974;2023-02-04T08:39:38;101540.66;;;1.53;78.65
23635;BME280;11994;51.038;16.974;2023-02-04T08:42:08;101539.84;;;1.54;78.31
23635;BME280;11994;51.038;16.974;2023-02-04T08:44:34;101549.77;;;1.58;78.32
23635;BME280;11994;51.038;16.974;2023-02-04T08:46:59;101554.02;;;1.61;77.98
23635;BME280;11994;51.038;16.974;2023-02-04T08:49:25;101563.45;;;1.64;77.69
23635;BME280;11994;51.038;16.974;2023-02-04T08:51:50;101562.47;;;1.66;77.16
23635;BME280;11994;51.038;16.974;2023-02-04T08:54:16;101563.57;;;1.68;77.32
23635;BME280;11994;51.038;16.974;2023-02-04T08:56:41;101566.27;;;1.71;76.65
23635;BME280;11994;51.038;16.974;2023-02-04T08:59:07;101571.13;;;1.72;76.99
23635;BME280;11994;51.038;16.974;2023-02-04T09:01:32;101566.41;;;1.81;77.47
23635;BME280;11994;51.038;16.974;2023-02-04T09:03:57;101573.80;;;1.90;77.51
23635;BME280;11994;51.038;16.974;2023-02-04T09:06:23;101573.48;;;1.95;77.62
23635;BME280;11994;51.038;16.974;2023-02-04T09:08:48;101580.52;;;2.00;77.35
23635;BME280;11994;51.038;16.974;2023-02-04T09:11:13;101581.81;;;2.02;77.36
23635;BME280;11994;51.038;16.974;2023-02-04T09:13:39;101585.45;;;2.03;76.98
23635;BME280;11994;51.038;16.974;2023-02-04T09:16:04;101594.64;;;2.04;77.34
23635;BME280;11994;51.038;16.974;2023-02-04T09:18:30;101596.74;;;2.05;76.94
23635;BME280;11994;51.038;16.974;2023-02-04T09:20:57;101599.86;;;2.00;75.88
23635;BME280;11994;51.038;16.974;2023-02-04T09:23:22;101601.61;;;1.96;76.46
23635;BME280;11994;51.038;16.974;2023-02-04T09:25:48;101602.78;;;1.95;77.01
23635;BME280;11994;51.038;16.974;2023-02-04T09:28:13;101605.25;;;1.96;77.25
23635;BME280;11994;51.038;16.974;2023-02-04T09:30:42;101608.20;;;1.97;77.12
23635;BME280;11994;51.038;16.974;2023-02-04T09:33:09;101601.63;;;1.96;77.28
23635;BME280;11994;51.038;16.974;2023-02-04T09:35:35;101607.17;;;1.97;77.22
23635;BME280;11994;51.038;16.974;2023-02-04T09:38:02;101616.66;;;1.97;77.61
23635;BME280;11994;51.038;16.974;2023-02-04T09:40:30;101613.03;;;1.97;77.71
23635;BME280;11994;51.038;16.974;2023-02-04T09:42:59;101616.38;;;1.99;78.00
23635;BME280;11994;51.038;16.974;2023-02-04T09:45:27;101624.87;;;2.00;77.82
23635;BME280;11994;51.038;16.974;2023-02-04T09:47:55;101628.70;;;2.01;77.98
23635;BME280;11994;51.038;16.974;2023-02-04T09:50:22;101628.23;;;2.02;77.93
23635;BME280;11994;51.038;16.974;2023-02-04T09:52:50;101627.64;;;2.01;77.87
23635;BME280;11994;51.038;16.974;2023-02-04T09:55:19;101625.88;;;1.99;77.85
23635;BME280;11994;51.038;16.974;2023-02-04T09:57:45;101627.20;;;1.98;77.78
23635;BME280;11994;51.038;16.974;2023-02-04T10:00:30;101627.65;;;1.96;77.71
23635;BME280;11994;51.038;16.974;2023-02-04T10:02:59;101625.39;;;1.95;78.14
23635;BME280;11994;51.038;16.974;2023-02-04T10:07:53;101628.91;;;1.97;77.95
23635;BME280;11994;51.038;16.974;2023-02-04T10:10:20;101639.11;;;1.93;77.66
23635;BME280;11994;51.038;16.974;2023-02-04T10:12:48;101648.97;;;1.98;78.34
23635;BME280;11994;51.038;16.974;2023-02-04T10:15:16;101654.07;;;2.06;78.13
23635;BME280;11994;51.038;16.974;2023-02-04T10:17:47;101656.96;;;2.05;78.18
23635;BME280;11994;51.038;16.974;2023-02-04T10:20:16;101659.29;;;2.03;78.14
23635;BME280;11994;51.038;16.974;2023-02-04T10:22:42;101657.75;;;1.99;77.48
23635;BME280;11994;51.038;16.974;2023-02-04T10:25:17;101655.36;;;1.89;77.33
23635;BME280;11994;51.038;16.974;2023-02-04T10:27:57;101661.81;;;1.82;77.35
23635;BME280;11994;51.038;16.974;2023-02-04T10:30:29;101669.90;;;1.81;77.56
23635;BME280;11994;51.038;16.974;2023-02-04T10:32:58;101675.10;;;1.86;77.73
23635;BME280;11994;51.038;16.974;2023-02-04T10:35:24;101679.91;;;1.91;77.98
23635;BME280;11994;51.038;16.974;2023-02-04T10:38:06;101678.72;;;1.91;77.64
23635;BME280;11994;51.038;16.974;2023-02-04T10:40:33;101687.08;;;1.88;78.05
23635;BME280;11994;51.038;16.974;2023-02-04T10:43:09;101690.51;;;1.88;77.52
23635;BME280;11994;51.038;16.974;2023-02-04T10:45:36;101689.12;;;1.83;77.69
23635;BME280;11994;51.038;16.974;2023-02-04T10:48:01;101704.09;;;1.82;78.04
23635;BME280;11994;51.038;16.974;2023-02-04T10:50:28;101704.05;;;1.86;78.05
23635;BME280;11994;51.038;16.974;2023-02-04T10:52:57;101698.34;;;1.90;78.35
23635;BME280;11994;51.038;16.974;2023-02-04T10:55:45;101700.38;;;1.94;78.04
23635;BME280;11994;51.038;16.974;2023-02-04T10:58:14;101705.55;;;1.99;78.18
23635;BME280;11994;51.038;16.974;2023-02-04T11:00:41;101704.79;;;2.02;77.66
23635;BME280;11994;51.038;16.974;2023-02-04T11:03:14;101704.89;;;2.04;78.10
23635;BME280;11994;51.038;16.974;2023-02-04T11:05:40;101707.21;;;2.11;78.33
23635;BME280;11994;51.038;16.974;2023-02-04T11:08:33;101712.86;;;2.15;77.95
23635;BME280;11994;51.038;16.974;2023-02-04T11:11:03;101715.45;;;2.20;78.08
23635;BME280;11994;51.038;16.974;2023-02-04T11:13:56;101716.55;;;2.22;77.20
23635;BME280;11994;51.038;16.974;2023-02-04T11:21:25;101721.30;;;2.34;77.68
23635;BME280;11994;51.038;16.974;2023-02-04T11:26:45;101732.38;;;2.46;77.24
23635;BME280;11994;51.038;16.974;2023-02-04T11:39:21;101748.02;;;2.63;75.55
23635;BME280;11994;51.038;16.974;2023-02-04T11:41:48;101751.25;;;2.57;73.65
23635;BME280;11994;51.038;16.974;2023-02-04T11:44:15;101752.52;;;2.49;73.04
23635;BME280;11994;51.038;16.974;2023-02-04T11:46:41;101751.48;;;2.44;72.25
23635;BME280;11994;51.038;16.974;2023-02-04T11:49:17;101752.88;;;2.39;71.96
23635;BME280;11994;51.038;16.974;2023-02-04T11:51:43;101749.03;;;2.33;71.28
23635;BME280;11994;51.038;16.974;2023-02-04T11:54:13;101750.12;;;2.29;70.48
23635;BME280;11994;51.038;16.974;2023-02-04T11:56:40;101758.98;;;2.26;69.98
23635;BME280;11994;51.038;16.974;2023-02-04T11:59:08;101755.46;;;2.24;70.54
23635;BME280;11994;51.038;16.974;2023-02-04T12:01:35;101753.71;;;2.23;69.99
23635;BME280;11994;51.038;16.974;2023-02-04T12:04:03;101753.33;;;2.22;70.07
23635;BME280;11994;51.038;16.974;2023-02-04T12:06:31;101758.37;;;2.24;70.45
23635;BME280;11994;51.038;16.974;2023-02-04T12:11:57;101765.79;;;2.23;70.85
23635;BME280;11994;51.038;16.974;2023-02-04T12:14:37;101766.36;;;2.25;70.51
23635;BME280;11994;51.038;16.974;2023-02-04T12:17:19;101759.83;;;2.35;70.09
23635;BME280;11994;51.038;16.974;2023-02-04T12:19:44;101762.31;;;2.52;70.90
23635;BME280;11994;51.038;16.974;2023-02-04T12:22:10;101762.80;;;2.62;70.02
23635;BME280;11994;51.038;16.974;2023-02-04T12:24:35;101768.84;;;2.62;69.68
23635;BME280;11994;51.038;16.974;2023-02-04T12:27:01;101778.91;;;2.58;69.50
23635;BME280;11994;51.038;16.974;2023-02-04T12:29:26;101776.48;;;2.53;68.14
23635;BME280;11994;51.038;16.974;2023-02-04T12:31:51;101780.86;;;2.44;67.20
23635;BME280;11994;51.038;16.974;2023-02-04T12:34:17;101789.23;;;2.38;67.01
23635;BME280;11994;51.038;16.974;2023-02-04T12:36:42;101786.63;;;2.32;67.04
23635;BME280;11994;51.038;16.974;2023-02-04T12:39:08;101791.18;;;2.29;66.77
23635;BME280;11994;51.038;16.974;2023-02-04T12:41:35;101788.87;;;2.27;67.53
23635;BME280;11994;51.038;16.974;2023-02-04T12:44:00;101785.80;;;2.28;67.74
23635;BME280;11994;51.038;16.974;2023-02-04T12:46:27;101784.08;;;2.28;68.37
23635;BME280;11994;51.038;16.974;2023-02-04T12:48:53;101789.90;;;2.32;68.36
23635;BME280;11994;51.038;16.974;2023-02-04T12:51:18;101785.36;;;2.35;68.19
23635;BME280;11994;51.038;16.974;2023-02-04T12:53:45;101790.77;;;2.37;68.21
23635;BME280;11994;51.038;16.974;2023-02-04T12:56:12;101792.47;;;2.36;67.76
23635;BME280;11994;51.038;16.974;2023-02-04T12:58:38;101787.02;;;2.38;66.76
23635;BME280;11994;51.038;16.974;2023-02-04T13:01:03;101786.61;;;2.46;68.12
23635;BME280;11994;51.038;16.974;2023-02-04T13:03:29;101786.95;;;2.56;67.91
23635;BME280;11994;51.038;16.974;2023-02-04T13:05:54;101794.63;;;2.58;67.29
23635;BME280;11994;51.038;16.974;2023-02-04T13:08:20;101795.69;;;2.54;66.94
23635;BME280;11994;51.038;16.974;2023-02-04T13:10:45;101797.98;;;2.51;66.79
23635;BME280;11994;51.038;16.974;2023-02-04T13:13:19;101798.90;;;2.52;66.92
23635;BME280;11994;51.038;16.974;2023-02-04T13:15:44;101803.85;;;2.55;67.16